BOX295 EDDP-EDDF
Flight info
| Callsign | BOX295 |
|---|---|
| Flight time | 0h 57m |
| Altitude | 22000 |
| Route | ORTAG5E/08R ORTAG T177 ODIPI/N0429F210 T157 KERAX KERAX5D |
| Aircraft | B77L/H-SDE1E2E3FGHIJ2J3J4J5M1RWXY/LB1D1 |
Departure
| Time | 2026-05-07 19:17 |
|---|---|
| Airport | Leipzig/Halle Airport (EDDP) |
Arrival
| Time | 2026-05-07 20:14 |
|---|---|
| Airport | Frankfurt Main Airport (EDDF) |
| Time | Latitude | Longitude | Altitude | Speed | Heading |
|---|---|---|---|---|---|
| 2026-05-07 18:42 | 51.40867 | 12.24508 | 470 ft | 0 kts | 266° |
| 2026-05-07 19:00 | 51.40868 | 12.24509 | 442 ft | 1 kts | 266° |
| 2026-05-07 19:01 | 51.40869 | 12.24534 | 465 ft | 3 kts | 266° |
| 2026-05-07 19:01 | 51.40870 | 12.24567 | 463 ft | 3 kts | 266° |
| 2026-05-07 19:01 | 51.40872 | 12.24599 | 463 ft | 3 kts | 266° |
| 2026-05-07 19:01 | 51.40873 | 12.24624 | 463 ft | 2 kts | 267° |
| 2026-05-07 19:02 | 51.40872 | 12.24653 | 463 ft | 3 kts | 301° |
| 2026-05-07 19:02 | 51.40860 | 12.24671 | 462 ft | 3 kts | 349° |
| 2026-05-07 19:02 | 51.40840 | 12.24674 | 463 ft | 2 kts | 356° |
| 2026-05-07 19:02 | 51.40832 | 12.24675 | 464 ft | 1 kts | 355° |
| 2026-05-07 19:03 | 51.40831 | 12.24675 | 464 ft | 2 kts | 355° |
| 2026-05-07 19:06 | 51.40836 | 12.24674 | 463 ft | 2 kts | 355° |
| 2026-05-07 19:06 | 51.40925 | 12.24665 | 466 ft | 7 kts | 355° |
| 2026-05-07 19:06 | 51.40987 | 12.24657 | 468 ft | 11 kts | 356° |
| 2026-05-07 19:07 | 51.41052 | 12.24649 | 470 ft | 7 kts | 355° |
| 2026-05-07 19:07 | 51.41063 | 12.24647 | 474 ft | 0 kts | 352° |
| 2026-05-07 19:07 | 51.41073 | 12.24644 | 475 ft | 1 kts | 352° |
| 2026-05-07 19:07 | 51.41080 | 12.24643 | 475 ft | 1 kts | 353° |
| 2026-05-07 19:08 | 51.41087 | 12.24634 | 470 ft | 2 kts | 321° |
| 2026-05-07 19:08 | 51.41108 | 12.24607 | 474 ft | 6 kts | 324° |
| 2026-05-07 19:08 | 51.41152 | 12.24571 | 470 ft | 8 kts | 329° |
| 2026-05-07 19:08 | 51.41177 | 12.24477 | 471 ft | 11 kts | 273° |
| 2026-05-07 19:09 | 51.41171 | 12.24322 | 471 ft | 17 kts | 265° |
| 2026-05-07 19:09 | 51.41161 | 12.24097 | 470 ft | 22 kts | 265° |
| 2026-05-07 19:09 | 51.41150 | 12.23867 | 473 ft | 21 kts | 265° |
| 2026-05-07 19:09 | 51.41138 | 12.23628 | 476 ft | 22 kts | 265° |
| 2026-05-07 19:10 | 51.41127 | 12.23384 | 479 ft | 21 kts | 266° |
| 2026-05-07 19:10 | 51.41115 | 12.23138 | 472 ft | 22 kts | 265° |
| 2026-05-07 19:10 | 51.41104 | 12.22877 | 467 ft | 26 kts | 265° |
| 2026-05-07 19:10 | 51.41090 | 12.22593 | 466 ft | 24 kts | 266° |
| 2026-05-07 19:11 | 51.41078 | 12.22335 | 463 ft | 24 kts | 266° |
| 2026-05-07 19:11 | 51.41067 | 12.22090 | 464 ft | 20 kts | 266° |
| 2026-05-07 19:11 | 51.41057 | 12.21882 | 464 ft | 18 kts | 265° |
| 2026-05-07 19:11 | 51.41047 | 12.21682 | 464 ft | 19 kts | 265° |
| 2026-05-07 19:12 | 51.41036 | 12.21445 | 458 ft | 24 kts | 265° |
| 2026-05-07 19:12 | 51.41023 | 12.21183 | 454 ft | 18 kts | 265° |
| 2026-05-07 19:12 | 51.41013 | 12.20967 | 446 ft | 22 kts | 266° |
| 2026-05-07 19:12 | 51.41005 | 12.20792 | 441 ft | 15 kts | 265° |
| 2026-05-07 19:13 | 51.40996 | 12.20604 | 433 ft | 19 kts | 266° |
| 2026-05-07 19:13 | 51.41008 | 12.20520 | 427 ft | 6 kts | 304° |
| 2026-05-07 19:13 | 51.41033 | 12.20487 | 430 ft | 1 kts | 345° |
| 2026-05-07 19:13 | 51.41036 | 12.20488 | 430 ft | 0 kts | 358° |
| 2026-05-07 19:14 | 51.41039 | 12.20488 | 430 ft | 2 kts | 359° |
| 2026-05-07 19:14 | 51.41072 | 12.20494 | 430 ft | 9 kts | 12° |
| 2026-05-07 19:15 | 51.41148 | 12.20551 | 429 ft | 16 kts | 46° |
| 2026-05-07 19:15 | 51.41168 | 12.20645 | 431 ft | 0 kts | 84° |
| 2026-05-07 19:15 | 51.41168 | 12.20646 | 431 ft | 3 kts | 85° |
| 2026-05-07 19:16 | 51.41187 | 12.21032 | 450 ft | 72 kts | 85° |
| 2026-05-07 19:16 | 51.41237 | 12.22085 | 462 ft | 116 kts | 85° |
| 2026-05-07 19:16 | 51.41309 | 12.23613 | 477 ft | 156 kts | 85° |
| 2026-05-07 19:16 | 51.41389 | 12.25498 | 666 ft | 173 kts | 84° |
| 2026-05-07 19:17 | 51.41478 | 12.27434 | 1273 ft | 176 kts | 84° |
| 2026-05-07 19:17 | 51.41584 | 12.29421 | 1901 ft | 180 kts | 83° |
| 2026-05-07 19:17 | 51.41706 | 12.31426 | 2570 ft | 183 kts | 83° |
| 2026-05-07 19:17 | 51.41827 | 12.33527 | 3026 ft | 199 kts | 84° |
| 2026-05-07 19:18 | 51.41948 | 12.35842 | 3278 ft | 225 kts | 84° |
| 2026-05-07 19:18 | 51.42147 | 12.38420 | 3676 ft | 239 kts | 73° |
| 2026-05-07 19:18 | 51.42991 | 12.40747 | 4251 ft | 249 kts | 44° |
| 2026-05-07 19:18 | 51.44463 | 12.42271 | 4979 ft | 256 kts | 21° |
| 2026-05-07 19:19 | 51.46225 | 12.42700 | 5684 ft | 263 kts | 353° |
| 2026-05-07 19:19 | 51.48013 | 12.41955 | 6347 ft | 269 kts | 345° |
| 2026-05-07 19:19 | 51.49826 | 12.41124 | 7146 ft | 272 kts | 346° |
| 2026-05-07 19:19 | 51.51656 | 12.40327 | 7989 ft | 273 kts | 346° |
| 2026-05-07 19:20 | 51.53504 | 12.39533 | 8783 ft | 276 kts | 346° |
| 2026-05-07 19:20 | 51.55354 | 12.38622 | 9506 ft | 280 kts | 335° |
| 2026-05-07 19:20 | 51.56729 | 12.36884 | 10060 ft | 288 kts | 308° |
| 2026-05-07 19:20 | 51.57636 | 12.34032 | 10567 ft | 299 kts | 290° |
| 2026-05-07 19:21 | 51.58327 | 12.30726 | 10751 ft | 325 kts | 290° |
| 2026-05-07 19:21 | 51.59078 | 12.27138 | 10950 ft | 350 kts | 290° |
| 2026-05-07 19:21 | 51.59885 | 12.23329 | 11368 ft | 368 kts | 290° |
| 2026-05-07 19:21 | 51.60993 | 12.19613 | 11848 ft | 374 kts | 308° |
| 2026-05-07 19:22 | 51.62925 | 12.16816 | 12700 ft | 374 kts | 328° |
| 2026-05-07 19:22 | 51.65168 | 12.14635 | 13519 ft | 380 kts | 330° |
| 2026-05-07 19:22 | 51.67415 | 12.12358 | 14373 ft | 381 kts | 326° |
| 2026-05-07 19:22 | 51.69317 | 12.09310 | 14959 ft | 394 kts | 304° |
| 2026-05-07 19:23 | 51.70410 | 12.05237 | 15775 ft | 401 kts | 285° |
| 2026-05-07 19:23 | 51.70661 | 12.00764 | 16659 ft | 402 kts | 268° |
| 2026-05-07 19:23 | 51.70441 | 11.96211 | 17345 ft | 409 kts | 265° |
| 2026-05-07 19:23 | 51.70170 | 11.91600 | 18133 ft | 414 kts | 265° |
| 2026-05-07 19:24 | 51.69901 | 11.87022 | 18884 ft | 416 kts | 265° |
| 2026-05-07 19:24 | 51.69639 | 11.82362 | 19116 ft | 419 kts | 265° |
| 2026-05-07 19:24 | 51.69388 | 11.77666 | 19104 ft | 419 kts | 266° |
| 2026-05-07 19:24 | 51.69146 | 11.72989 | 19107 ft | 418 kts | 266° |
| 2026-05-07 19:25 | 51.68907 | 11.68291 | 19635 ft | 421 kts | 266° |
| 2026-05-07 19:25 | 51.68668 | 11.63604 | 20534 ft | 419 kts | 266° |
| 2026-05-07 19:25 | 51.68426 | 11.58913 | 21347 ft | 421 kts | 265° |
| 2026-05-07 19:25 | 51.68183 | 11.54236 | 21984 ft | 427 kts | 265° |
| 2026-05-07 19:26 | 51.67930 | 11.49410 | 22095 ft | 434 kts | 265° |
| 2026-05-07 19:26 | 51.67675 | 11.44570 | 22104 ft | 432 kts | 265° |
| 2026-05-07 19:26 | 51.67450 | 11.40337 | 22102 ft | 429 kts | 265° |
| 2026-05-07 19:26 | 51.67192 | 11.35538 | 22101 ft | 428 kts | 265° |
| 2026-05-07 19:27 | 51.66690 | 11.30852 | 22099 ft | 427 kts | 251° |
| 2026-05-07 19:27 | 51.65274 | 11.26624 | 22115 ft | 432 kts | 233° |
| 2026-05-07 19:27 | 51.63177 | 11.23185 | 22102 ft | 437 kts | 218° |
| 2026-05-07 19:27 | 51.60648 | 11.20482 | 22110 ft | 438 kts | 213° |
| 2026-05-07 19:28 | 51.58056 | 11.17855 | 22102 ft | 440 kts | 213° |
| 2026-05-07 19:28 | 51.55508 | 11.15226 | 22099 ft | 440 kts | 214° |
| 2026-05-07 19:28 | 51.52951 | 11.12530 | 22107 ft | 439 kts | 214° |
| 2026-05-07 19:28 | 51.50428 | 11.09835 | 22087 ft | 430 kts | 216° |
| 2026-05-07 19:29 | 51.48208 | 11.06661 | 22097 ft | 427 kts | 233° |
| 2026-05-07 19:29 | 51.46698 | 11.02584 | 22104 ft | 425 kts | 244° |
| 2026-05-07 19:29 | 51.45348 | 10.98381 | 22111 ft | 431 kts | 242° |
| 2026-05-07 19:29 | 51.43908 | 10.94170 | 22106 ft | 434 kts | 242° |
| 2026-05-07 19:30 | 51.42432 | 10.89968 | 22093 ft | 429 kts | 241° |
| 2026-05-07 19:30 | 51.40975 | 10.85848 | 22080 ft | 426 kts | 241° |
| 2026-05-07 19:30 | 51.39515 | 10.81719 | 22090 ft | 426 kts | 241° |
| 2026-05-07 19:30 | 51.38054 | 10.77580 | 22100 ft | 427 kts | 241° |
| 2026-05-07 19:31 | 51.36587 | 10.73422 | 22098 ft | 428 kts | 241° |
| 2026-05-07 19:31 | 51.35143 | 10.69329 | 22097 ft | 428 kts | 241° |
| 2026-05-07 19:31 | 51.33676 | 10.65177 | 22095 ft | 429 kts | 241° |
| 2026-05-07 19:31 | 51.32201 | 10.61004 | 22083 ft | 429 kts | 241° |
| 2026-05-07 19:32 | 51.30728 | 10.56846 | 22086 ft | 429 kts | 241° |
| 2026-05-07 19:32 | 51.29754 | 10.54100 | 22090 ft | 429 kts | 241° |
| 2026-05-07 19:32 | 51.28279 | 10.49952 | 22095 ft | 429 kts | 241° |
| 2026-05-07 19:32 | 51.26696 | 10.45913 | 22091 ft | 429 kts | 235° |
| 2026-05-07 19:33 | 51.24847 | 10.42162 | 22096 ft | 429 kts | 231° |
| 2026-05-07 19:33 | 51.22332 | 10.37289 | 22088 ft | 429 kts | 232° |
| 2026-05-07 19:33 | 51.20455 | 10.33595 | 22092 ft | 429 kts | 232° |
| 2026-05-07 19:33 | 51.18583 | 10.29886 | 22096 ft | 429 kts | 232° |
| 2026-05-07 19:34 | 51.17307 | 10.27409 | 22096 ft | 429 kts | 230° |
| 2026-05-07 19:34 | 51.15201 | 10.24030 | 21893 ft | 432 kts | 222° |
| 2026-05-07 19:34 | 51.12834 | 10.21061 | 21399 ft | 433 kts | 216° |
| 2026-05-07 19:34 | 51.10282 | 10.18542 | 20965 ft | 428 kts | 212° |
| 2026-05-07 19:35 | 51.07738 | 10.16127 | 20503 ft | 423 kts | 212° |
| 2026-05-07 19:35 | 51.05257 | 10.13739 | 20092 ft | 419 kts | 212° |
| 2026-05-07 19:35 | 51.02775 | 10.11332 | 19675 ft | 417 kts | 212° |
| 2026-05-07 19:35 | 51.00303 | 10.08929 | 19260 ft | 414 kts | 213° |
| 2026-05-07 19:36 | 50.97847 | 10.06540 | 18849 ft | 412 kts | 213° |
| 2026-05-07 19:36 | 50.95404 | 10.04165 | 18439 ft | 411 kts | 213° |
| 2026-05-07 19:36 | 50.92971 | 10.01803 | 17999 ft | 409 kts | 213° |
| 2026-05-07 19:36 | 50.90541 | 9.99447 | 17548 ft | 408 kts | 213° |
| 2026-05-07 19:37 | 50.88144 | 9.97125 | 17094 ft | 406 kts | 213° |
| 2026-05-07 19:37 | 50.85736 | 9.94796 | 16646 ft | 405 kts | 213° |
| 2026-05-07 19:37 | 50.84980 | 9.94066 | 16497 ft | 404 kts | 213° |
| 2026-05-07 19:37 | 50.83355 | 9.92498 | 16205 ft | 403 kts | 213° |
| 2026-05-07 19:38 | 50.81117 | 9.90340 | 15811 ft | 401 kts | 213° |
| 2026-05-07 19:38 | 50.78925 | 9.88228 | 15418 ft | 400 kts | 213° |
| 2026-05-07 19:38 | 50.77836 | 9.87180 | 15231 ft | 398 kts | 212° |
| 2026-05-07 19:38 | 50.76344 | 9.85745 | 14966 ft | 396 kts | 212° |
| 2026-05-07 19:39 | 50.73995 | 9.83488 | 14541 ft | 392 kts | 212° |
| 2026-05-07 19:39 | 50.71680 | 9.81264 | 14124 ft | 387 kts | 212° |
| 2026-05-07 19:39 | 50.69386 | 9.79063 | 13690 ft | 384 kts | 212° |
| 2026-05-07 19:39 | 50.67114 | 9.76888 | 13263 ft | 381 kts | 212° |
| 2026-05-07 19:40 | 50.64844 | 9.74718 | 13097 ft | 382 kts | 212° |
| 2026-05-07 19:40 | 50.62573 | 9.72549 | 13102 ft | 381 kts | 212° |
| 2026-05-07 19:40 | 50.60331 | 9.70408 | 13100 ft | 382 kts | 212° |
| 2026-05-07 19:40 | 50.58048 | 9.68231 | 13097 ft | 382 kts | 212° |
| 2026-05-07 19:41 | 50.55778 | 9.66067 | 13092 ft | 382 kts | 212° |
| 2026-05-07 19:41 | 50.53496 | 9.63895 | 13086 ft | 382 kts | 212° |
| 2026-05-07 19:41 | 50.51223 | 9.61735 | 13088 ft | 382 kts | 212° |
| 2026-05-07 19:41 | 50.49004 | 9.59495 | 13059 ft | 375 kts | 220° |
| 2026-05-07 19:42 | 50.47300 | 9.56382 | 13090 ft | 379 kts | 240° |
| 2026-05-07 19:42 | 50.46329 | 9.52544 | 13084 ft | 376 kts | 255° |
| 2026-05-07 19:42 | 50.45639 | 9.48615 | 13091 ft | 379 kts | 255° |
| 2026-05-07 19:42 | 50.44914 | 9.44611 | 13089 ft | 381 kts | 254° |
| 2026-05-07 19:43 | 50.44174 | 9.40612 | 12911 ft | 382 kts | 254° |
| 2026-05-07 19:43 | 50.43425 | 9.36628 | 12582 ft | 379 kts | 254° |
| 2026-05-07 19:43 | 50.42674 | 9.32669 | 12179 ft | 376 kts | 254° |
| 2026-05-07 19:43 | 50.41932 | 9.28810 | 11748 ft | 370 kts | 252° |
| 2026-05-07 19:44 | 50.40769 | 9.25266 | 11277 ft | 368 kts | 232° |
| 2026-05-07 19:44 | 50.38892 | 9.22527 | 10870 ft | 372 kts | 214° |
| 2026-05-07 19:44 | 50.36675 | 9.20423 | 10487 ft | 373 kts | 211° |
| 2026-05-07 19:44 | 50.34442 | 9.18339 | 10080 ft | 373 kts | 212° |
| 2026-05-07 19:45 | 50.32223 | 9.16221 | 9636 ft | 372 kts | 212° |
| 2026-05-07 19:45 | 50.30025 | 9.14103 | 9185 ft | 369 kts | 212° |
| 2026-05-07 19:45 | 50.27949 | 9.11861 | 8692 ft | 356 kts | 224° |
| 2026-05-07 19:45 | 50.26500 | 9.08778 | 8253 ft | 352 kts | 245° |
| 2026-05-07 19:46 | 50.25649 | 9.05278 | 7859 ft | 348 kts | 251° |
| 2026-05-07 19:46 | 50.24838 | 9.01698 | 7433 ft | 349 kts | 251° |
| 2026-05-07 19:46 | 50.24020 | 8.98139 | 7108 ft | 347 kts | 251° |
| 2026-05-07 19:46 | 50.23207 | 8.94623 | 7078 ft | 348 kts | 251° |
| 2026-05-07 19:47 | 50.22383 | 8.91078 | 7072 ft | 347 kts | 251° |
| 2026-05-07 19:47 | 50.21558 | 8.87543 | 7068 ft | 346 kts | 251° |
| 2026-05-07 19:47 | 50.20751 | 8.84104 | 7072 ft | 346 kts | 251° |
| 2026-05-07 19:47 | 50.19921 | 8.80574 | 7072 ft | 346 kts | 250° |
| 2026-05-07 19:48 | 50.19103 | 8.77105 | 7063 ft | 346 kts | 250° |
| 2026-05-07 19:48 | 50.18270 | 8.73581 | 7076 ft | 346 kts | 250° |
| 2026-05-07 19:48 | 50.17434 | 8.70050 | 6994 ft | 348 kts | 250° |
| 2026-05-07 19:48 | 50.16590 | 8.66490 | 6653 ft | 350 kts | 250° |
| 2026-05-07 19:49 | 50.15748 | 8.62949 | 6304 ft | 346 kts | 250° |
| 2026-05-07 19:49 | 50.14916 | 8.59453 | 5940 ft | 342 kts | 250° |
| 2026-05-07 19:49 | 50.14089 | 8.55987 | 5546 ft | 339 kts | 251° |
| 2026-05-07 19:49 | 50.13269 | 8.52546 | 5207 ft | 337 kts | 250° |
| 2026-05-07 19:50 | 50.12469 | 8.49199 | 5059 ft | 333 kts | 250° |
| 2026-05-07 19:50 | 50.11654 | 8.45797 | 5007 ft | 336 kts | 250° |
| 2026-05-07 19:50 | 50.10830 | 8.42365 | 5001 ft | 340 kts | 250° |
| 2026-05-07 19:50 | 50.09994 | 8.38905 | 4994 ft | 341 kts | 250° |
| 2026-05-07 19:51 | 50.09155 | 8.35443 | 4985 ft | 341 kts | 250° |
| 2026-05-07 19:51 | 50.08320 | 8.31998 | 4988 ft | 340 kts | 250° |
| 2026-05-07 19:51 | 50.07489 | 8.28571 | 4988 ft | 339 kts | 250° |
| 2026-05-07 19:51 | 50.06652 | 8.25127 | 4985 ft | 339 kts | 250° |
| 2026-05-07 19:52 | 50.05818 | 8.21698 | 4981 ft | 339 kts | 250° |
| 2026-05-07 19:52 | 50.04985 | 8.18274 | 4985 ft | 339 kts | 250° |
| 2026-05-07 19:52 | 50.04156 | 8.14878 | 4988 ft | 339 kts | 250° |
| 2026-05-07 19:52 | 50.03120 | 8.11633 | 4987 ft | 339 kts | 234° |
| 2026-05-07 19:53 | 50.01675 | 8.08664 | 4987 ft | 341 kts | 240° |
| 2026-05-07 19:53 | 50.00927 | 8.05233 | 4992 ft | 340 kts | 262° |
| 2026-05-07 19:53 | 50.00556 | 8.01611 | 4987 ft | 340 kts | 256° |
| 2026-05-07 19:53 | 49.99589 | 7.98234 | 4990 ft | 342 kts | 236° |
| 2026-05-07 19:54 | 49.97951 | 7.95652 | 4979 ft | 332 kts | 214° |
| 2026-05-07 19:54 | 49.95857 | 7.94315 | 4982 ft | 325 kts | 189° |
| 2026-05-07 19:54 | 49.93627 | 7.94432 | 4979 ft | 317 kts | 165° |
| 2026-05-07 19:54 | 49.91723 | 7.95929 | 4978 ft | 298 kts | 138° |
| 2026-05-07 19:55 | 49.90539 | 7.98396 | 4974 ft | 278 kts | 110° |
| 2026-05-07 19:55 | 49.90260 | 8.01258 | 4974 ft | 266 kts | 81° |
| 2026-05-07 19:55 | 49.90904 | 8.03901 | 4984 ft | 263 kts | 52° |
| 2026-05-07 19:55 | 49.92080 | 8.06003 | 4992 ft | 262 kts | 49° |
| 2026-05-07 19:56 | 49.93144 | 8.08348 | 5000 ft | 269 kts | 57° |
| 2026-05-07 19:56 | 49.94078 | 8.10889 | 4989 ft | 270 kts | 60° |
| 2026-05-07 19:56 | 49.94933 | 8.13468 | 4981 ft | 267 kts | 64° |
| 2026-05-07 19:56 | 49.95655 | 8.16107 | 4978 ft | 264 kts | 68° |
| 2026-05-07 19:57 | 49.96307 | 8.18805 | 4776 ft | 271 kts | 69° |
| 2026-05-07 19:57 | 49.96965 | 8.21572 | 4384 ft | 274 kts | 68° |
| 2026-05-07 19:57 | 49.97625 | 8.24336 | 3980 ft | 272 kts | 68° |
| 2026-05-07 19:57 | 49.98280 | 8.27069 | 3593 ft | 265 kts | 68° |
| 2026-05-07 19:58 | 49.98907 | 8.29682 | 3202 ft | 251 kts | 68° |
| 2026-05-07 19:58 | 49.99499 | 8.32150 | 2841 ft | 237 kts | 69° |
| 2026-05-07 19:58 | 50.00059 | 8.34484 | 2514 ft | 223 kts | 69° |
| 2026-05-07 19:58 | 50.00572 | 8.36628 | 2239 ft | 200 kts | 69° |
| 2026-05-07 19:59 | 50.01038 | 8.38570 | 1951 ft | 188 kts | 69° |
| 2026-05-07 19:59 | 50.01492 | 8.40462 | 1685 ft | 183 kts | 69° |
| 2026-05-07 19:59 | 50.01916 | 8.42235 | 1414 ft | 168 kts | 69° |
| 2026-05-07 19:59 | 50.02307 | 8.43866 | 1164 ft | 153 kts | 69° |
| 2026-05-07 20:00 | 50.02666 | 8.45372 | 941 ft | 149 kts | 68° |
| 2026-05-07 20:00 | 50.03035 | 8.46874 | 762 ft | 149 kts | 67° |
| 2026-05-07 20:00 | 50.03389 | 8.48370 | 562 ft | 150 kts | 69° |
| 2026-05-07 20:00 | 50.03734 | 8.49824 | 369 ft | 149 kts | 69° |
| 2026-05-07 20:01 | 50.04081 | 8.51282 | 644 ft | 146 kts | 68° |
| 2026-05-07 20:01 | 50.04474 | 8.52835 | 1244 ft | 166 kts | 68° |
| 2026-05-07 20:01 | 50.04900 | 8.54575 | 2235 ft | 167 kts | 68° |
| 2026-05-07 20:01 | 50.05300 | 8.56185 | 2794 ft | 160 kts | 68° |
| 2026-05-07 20:02 | 50.05686 | 8.57772 | 3274 ft | 153 kts | 67° |
| 2026-05-07 20:02 | 50.06054 | 8.59292 | 3815 ft | 161 kts | 67° |
| 2026-05-07 20:02 | 50.06499 | 8.61093 | 4259 ft | 194 kts | 67° |
| 2026-05-07 20:02 | 50.07059 | 8.63164 | 4492 ft | 219 kts | 58° |
| 2026-05-07 20:03 | 50.08175 | 8.64817 | 4973 ft | 229 kts | 32° |
| 2026-05-07 20:03 | 50.09547 | 8.66129 | 4984 ft | 229 kts | 27° |
| 2026-05-07 20:03 | 50.11066 | 8.66757 | 4997 ft | 229 kts | 358° |
| 2026-05-07 20:03 | 50.12511 | 8.65941 | 4992 ft | 228 kts | 320° |
| 2026-05-07 20:04 | 50.13676 | 8.64261 | 4995 ft | 229 kts | 327° |
| 2026-05-07 20:04 | 50.15118 | 8.63197 | 5007 ft | 230 kts | 337° |
| 2026-05-07 20:04 | 50.16582 | 8.62118 | 5007 ft | 234 kts | 333° |
| 2026-05-07 20:04 | 50.18019 | 8.60938 | 4998 ft | 232 kts | 332° |
| 2026-05-07 20:05 | 50.19422 | 8.59728 | 4979 ft | 228 kts | 330° |
| 2026-05-07 20:05 | 50.20796 | 8.58514 | 4994 ft | 226 kts | 330° |
| 2026-05-07 20:05 | 50.22115 | 8.57192 | 4990 ft | 226 kts | 317° |
| 2026-05-07 20:05 | 50.22913 | 8.55096 | 5002 ft | 229 kts | 284° |
| 2026-05-07 20:06 | 50.22848 | 8.52625 | 5005 ft | 233 kts | 253° |
| 2026-05-07 20:06 | 50.22214 | 8.50319 | 5010 ft | 236 kts | 245° |
| 2026-05-07 20:06 | 50.21461 | 8.48019 | 5009 ft | 239 kts | 244° |
| 2026-05-07 20:06 | 50.20684 | 8.45712 | 5001 ft | 237 kts | 244° |
| 2026-05-07 20:07 | 50.19917 | 8.43455 | 5003 ft | 233 kts | 243° |
| 2026-05-07 20:07 | 50.19152 | 8.41208 | 5011 ft | 233 kts | 243° |
| 2026-05-07 20:07 | 50.18388 | 8.38968 | 5009 ft | 235 kts | 243° |
| 2026-05-07 20:07 | 50.17621 | 8.36715 | 5004 ft | 235 kts | 244° |
| 2026-05-07 20:08 | 50.16853 | 8.34472 | 5006 ft | 234 kts | 243° |
| 2026-05-07 20:08 | 50.16092 | 8.32249 | 5003 ft | 235 kts | 243° |
| 2026-05-07 20:08 | 50.15324 | 8.30010 | 5008 ft | 234 kts | 243° |
| 2026-05-07 20:08 | 50.14553 | 8.27763 | 5011 ft | 235 kts | 243° |
| 2026-05-07 20:09 | 50.13781 | 8.25512 | 5007 ft | 235 kts | 243° |
| 2026-05-07 20:09 | 50.13016 | 8.23267 | 5006 ft | 234 kts | 243° |
| 2026-05-07 20:09 | 50.12245 | 8.21029 | 4993 ft | 232 kts | 239° |
| 2026-05-07 20:10 | 50.09493 | 8.18740 | 5015 ft | 241 kts | 179° |
| 2026-05-07 20:10 | 50.07841 | 8.19185 | 5015 ft | 242 kts | 166° |
| 2026-05-07 20:10 | 50.06220 | 8.19862 | 5009 ft | 240 kts | 163° |
| 2026-05-07 20:10 | 50.04711 | 8.20875 | 4997 ft | 234 kts | 146° |
| 2026-05-07 20:11 | 50.03433 | 8.22427 | 5015 ft | 234 kts | 139° |
| 2026-05-07 20:11 | 50.02296 | 8.24217 | 5005 ft | 233 kts | 126° |
| 2026-05-07 20:11 | 50.01385 | 8.26279 | 5017 ft | 237 kts | 121° |
| 2026-05-07 20:11 | 50.00541 | 8.28530 | 5021 ft | 244 kts | 118° |
| 2026-05-07 20:12 | 49.99950 | 8.30959 | 4988 ft | 241 kts | 97° |
| 2026-05-07 20:12 | 50.00041 | 8.33605 | 4175 ft | 248 kts | 73° |
| 2026-05-07 20:12 | 50.00607 | 8.36093 | 3568 ft | 238 kts | 68° |
| 2026-05-07 20:12 | 50.01182 | 8.38437 | 2968 ft | 227 kts | 69° |
| 2026-05-07 20:13 | 50.01621 | 8.40705 | 2443 ft | 213 kts | 73° |
| 2026-05-07 20:13 | 50.02069 | 8.42843 | 1676 ft | 206 kts | 66° |
| 2026-05-07 20:13 | 50.02585 | 8.44787 | 1202 ft | 184 kts | 71° |
| 2026-05-07 20:13 | 50.02939 | 8.46559 | 789 ft | 159 kts | 67° |
| 2026-05-07 20:14 | 50.03311 | 8.48053 | 600 ft | 151 kts | 68° |
| 2026-05-07 20:14 | 50.03665 | 8.49549 | 385 ft | 151 kts | 68° |
| 2026-05-07 20:14 | 50.04001 | 8.50935 | 330 ft | 124 kts | 71° |
| 2026-05-07 20:14 | 50.04212 | 8.51819 | 353 ft | 47 kts | 70° |
| 2026-05-07 20:15 | 50.04237 | 8.52158 | 345 ft | 30 kts | 94° |
| 2026-05-07 20:15 | 50.04221 | 8.52302 | 352 ft | 11 kts | 100° |
| 2026-05-07 20:15 | 50.04208 | 8.52415 | 354 ft | 11 kts | 99° |
| 2026-05-07 20:15 | 50.04195 | 8.52529 | 360 ft | 6 kts | 112° |
| 2026-05-07 20:16 | 50.04171 | 8.52528 | 361 ft | 8 kts | 213° |
| 2026-05-07 20:16 | 50.04118 | 8.52331 | 356 ft | 26 kts | 250° |
| 2026-05-07 20:16 | 50.04056 | 8.52070 | 350 ft | 27 kts | 249° |
| 2026-05-07 20:16 | 50.04009 | 8.51877 | 351 ft | 31 kts | 249° |
| 2026-05-07 20:17 | 50.03935 | 8.51566 | 335 ft | 30 kts | 250° |
| 2026-05-07 20:17 | 50.03870 | 8.51291 | 336 ft | 26 kts | 250° |
| 2026-05-07 20:17 | 50.03757 | 8.51147 | 349 ft | 18 kts | 173° |
| 2026-05-07 20:17 | 50.03659 | 8.51267 | 358 ft | 19 kts | 117° |
| 2026-05-07 20:18 | 50.03599 | 8.51454 | 365 ft | 19 kts | 115° |
| 2026-05-07 20:18 | 50.03533 | 8.51664 | 365 ft | 24 kts | 116° |
| 2026-05-07 20:18 | 50.03512 | 8.51787 | 363 ft | 8 kts | 88° |
| 2026-05-07 20:18 | 50.03519 | 8.51918 | 359 ft | 15 kts | 81° |
| 2026-05-07 20:19 | 50.03534 | 8.52090 | 358 ft | 17 kts | 84° |
| 2026-05-07 20:19 | 50.03550 | 8.52287 | 352 ft | 19 kts | 80° |
| 2026-05-07 20:19 | 50.03516 | 8.52474 | 350 ft | 19 kts | 113° |
| 2026-05-07 20:19 | 50.03517 | 8.52682 | 348 ft | 19 kts | 73° |
| 2026-05-07 20:20 | 50.03563 | 8.52878 | 347 ft | 19 kts | 70° |
| 2026-05-07 20:20 | 50.03610 | 8.53075 | 353 ft | 19 kts | 69° |
| 2026-05-07 20:20 | 50.03654 | 8.53245 | 354 ft | 9 kts | 55° |
| 2026-05-07 20:20 | 50.03692 | 8.53255 | 352 ft | 6 kts | 348° |
| 2026-05-07 20:21 | 50.03730 | 8.53238 | 352 ft | 2 kts | 340° |
| 2026-05-07 20:21 | 50.03741 | 8.53232 | 356 ft | 0 kts | 340° |